Terminal Aerodrome Forecast
Issued by NWS Green Bay, WI

Home | Current Version | Previous Version | Graphics & Text | Print | Product List | Glossary On
Versions: 1 2 3 4 5 6 7 8 9 10 11 12 13 14 15 16 17 18 19
000
FTUS43 KGRB 202333
TAFGRB
TAF
KGRB 202333Z 2100/2124 20007KT P6SM SCT100
     FM210300 21004KT P6SM SCT060 BKN150
     FM210800 VRB02KT 3SM BR SCT060 BKN150
      TEMPO 2109/2113 1SM BR SCT002
     FM211500 20004KT P6SM SCT050 BKN090=

USA.gov is the U.S. government's official web portal to all federal, state and local government web resources and services.